Time;durP1;ratioP1;P1;durP2;ratioP2;P2;SDS_P1;SDS_P2;PMS_P1;PMS_P2;Temp;Humidity;BMP_temperature;BMP_pressure;BME280_temperature;BME280_humidity;BME280_pressure;Samples;Min_cycle;Max_cycle;Signal;HPM_P1;HPM_P2
2022/08/08 00:00:21;;;;;;;4.50;3.47;;;12.90;1.00;;;;;;5019140;28;20404;-77
2022/08/08 00:02:56;;;;;;;4.47;4.07;;;12.90;1.00;;;;;;5033424;28;20410;-69
2022/08/08 00:05:44;;;;;;;3.90;3.57;;;12.90;1.00;;;;;;5033293;28;20440;-69
2022/08/08 00:08:47;;;;;;;3.30;3.00;;;12.90;1.00;;;;;;5032581;28;20949;-70
2022/08/08 00:11:33;;;;;;;3.80;3.50;;;12.90;1.00;;;;;;5035784;28;20825;-69
2022/08/08 00:14:47;;;;;;;4.00;3.70;;;12.90;1.00;;;;;;5033240;28;20514;-69
2022/08/08 00:17:36;;;;;;;3.70;3.40;;;12.90;1.00;;;;;;5031027;28;20398;-78
2022/08/08 00:20:06;;;;;;;3.50;3.20;;;12.90;1.00;;;;;;5031082;28;20422;-79
2022/08/08 00:22:51;;;;;;;3.63;3.43;;;12.90;1.00;;;;;;5033429;28;20723;-72
2022/08/08 00:25:24;;;;;;;4.20;3.67;;;12.90;1.00;;;;;;5013590;28;20413;-70
2022/08/08 00:27:52;;;;;;;4.67;4.27;;;12.90;1.00;;;;;;5028801;28;20449;-72
2022/08/08 00:30:18;;;;;;;2.83;2.63;;;12.90;1.00;;;;;;5033257;28;20472;-70
2022/08/08 00:32:59;;;;;;;4.03;3.60;;;12.80;1.00;;;;;;5032202;28;20410;-70
2022/08/08 00:35:31;;;;;;;3.47;3.17;;;12.70;1.00;;;;;;5033006;28;20414;-70
2022/08/08 00:38:21;;;;;;;3.70;3.40;;;12.70;1.00;;;;;;5031953;28;20762;-71
2022/08/08 00:41:04;;;;;;;4.23;3.83;;;12.70;1.00;;;;;;5032872;28;20759;-77
2022/08/08 00:43:44;;;;;;;3.70;3.40;;;12.70;1.00;;;;;;5033299;28;20456;-78
2022/08/08 00:46:34;;;;;;;4.40;4.10;;;12.70;1.00;;;;;;5012542;28;20467;-70
2022/08/08 00:49:12;;;;;;;7.30;3.40;;;12.70;1.00;;;;;;5014703;28;20967;-78
2022/08/08 00:51:59;;;;;;;3.87;3.50;;;12.70;1.00;;;;;;5032076;28;20410;-70
2022/08/08 00:54:55;;;;;;;4.40;4.10;;;12.70;1.00;;;;;;5034073;28;20399;-69
2022/08/08 00:57:46;;;;;;;3.80;3.50;;;12.70;1.00;;;;;;5034436;28;20403;-77
2022/08/08 01:00:29;;;;;;;3.43;3.17;;;12.60;1.00;;;;;;5035302;28;20422;-78
2022/08/08 01:03:33;;;;;;;6.03;3.53;;;12.60;1.00;;;;;;5036798;28;20459;-69
2022/08/08 01:06:30;;;;;;;3.93;3.53;;;12.60;1.00;;;;;;5035011;28;20425;-73
2022/08/08 01:09:19;;;;;;;5.50;4.30;;;12.60;1.00;;;;;;5036234;28;20511;-78
2022/08/08 01:12:03;;;;;;;4.00;3.60;;;12.70;1.00;;;;;;5015823;28;20938;-78
2022/08/08 01:14:54;;;;;;;4.93;4.37;;;12.70;2.80;;;;;;5020725;28;20457;-74
2022/08/08 01:17:22;;;;;;;4.83;3.90;;;12.70;20.40;;;;;;5035223;28;20422;-70
2022/08/08 01:19:54;;;;;;;4.00;3.70;;;12.70;8.40;;;;;;5036396;28;20384;-78
2022/08/08 01:22:44;;;;;;;4.57;3.47;;;12.70;16.50;;;;;;5035532;28;20479;-69
2022/08/08 01:25:10;;;;;;;5.03;4.00;;;12.70;4.90;;;;;;5035070;28;20777;-69
2022/08/08 01:28:03;;;;;;;4.93;3.90;;;12.70;11.30;;;;;;5035326;28;20472;-70
2022/08/08 01:31:01;;;;;;;4.20;3.83;;;12.70;15.50;;;;;;5036377;28;20553;-78
2022/08/08 01:33:59;;;;;;;7.17;3.90;;;12.70;16.30;;;;;;5034570;28;20406;-78
2022/08/08 01:36:24;;;;;;;4.00;3.60;;;12.70;20.30;;;;;;5033998;28;20452;-78
2022/08/08 01:39:06;;;;;;;3.80;3.50;;;12.70;19.80;;;;;;5035133;28;20458;-70
2022/08/08 01:41:50;;;;;;;4.70;4.30;;;12.70;23.50;;;;;;5034538;28;20172;-69
2022/08/08 01:44:40;;;;;;;3.93;3.63;;;12.70;21.40;;;;;;5035883;28;20501;-78
2022/08/08 01:47:15;;;;;;;3.80;3.50;;;12.70;25.40;;;;;;5034998;28;20426;-77
2022/08/08 01:50:19;;;;;;;4.90;3.97;;;12.70;10.40;;;;;;5035308;28;20458;-70
2022/08/08 01:53:16;;;;;;;3.37;3.10;;;12.70;18.10;;;;;;5035943;28;20464;-69
2022/08/08 01:56:01;;;;;;;4.27;3.87;;;12.70;10.50;;;;;;5031058;28;20409;-78
2022/08/08 01:58:57;;;;;;;4.17;3.57;;;12.80;8.80;;;;;;5014716;28;20562;-79
2022/08/08 02:01:38;;;;;;;4.10;3.80;;;12.90;27.50;;;;;;5015927;28;20389;-68
2022/08/08 02:04:22;;;;;;;3.60;3.30;;;12.90;35.60;;;;;;5015520;28;20414;-77
2022/08/08 02:07:03;;;;;;;3.40;3.10;;;13.00;44.20;;;;;;5014511;28;20406;-76
2022/08/08 02:09:54;;;;;;;4.00;3.63;;;13.00;62.50;;;;;;5018834;28;20421;-74
2022/08/08 02:12:36;;;;;;;4.07;3.77;;;13.00;67.70;;;;;;5035539;28;20427;-76
2022/08/08 02:15:15;;;;;;;3.80;3.20;;;13.10;70.50;;;;;;5035355;28;20894;-68
2022/08/08 02:18:02;;;;;;;4.63;4.10;;;13.10;58.40;;;;;;5034349;28;20472;-76
2022/08/08 02:23:54;;;;;;;3.87;3.57;;;13.20;67.20;;;;;;5035244;28;20402;-70
2022/08/08 02:26:31;;;;;;;3.30;3.03;;;13.20;71.90;;;;;;5034100;28;20433;-70
2022/08/08 02:29:25;;;;;;;4.60;4.20;;;13.20;69.80;;;;;;5034846;28;20469;-78
2022/08/08 02:32:08;;;;;;;4.63;3.63;;;13.20;71.10;;;;;;5015412;28;20815;-75
2022/08/08 02:34:59;;;;;;;6.90;3.63;;;13.20;66.80;;;;;;5015254;28;20407;-70
2022/08/08 02:37:32;;;;;;;4.60;4.30;;;13.20;69.60;;;;;;5034187;28;20430;-78
2022/08/08 02:40:33;;;;;;;4.50;4.20;;;13.20;68.40;;;;;;5034735;28;20484;-78
2022/08/08 02:43:37;;;;;;;3.70;3.40;;;13.20;70.10;;;;;;5033707;28;20906;-78
2022/08/08 02:46:44;;;;;;;7.43;3.57;;;13.10;64.40;;;;;;5050987;28;20447;-78
2022/08/08 02:49:22;;;;;;;3.57;3.27;;;13.10;68.70;;;;;;5044343;28;20513;-79
2022/08/08 02:52:09;;;;;;;6.03;3.80;;;13.10;66.30;;;;;;5020984;28;20484;-79
2022/08/08 02:54:38;;;;;;;3.80;3.50;;;13.00;64.40;;;;;;5013710;28;20938;-78
2022/08/08 02:57:20;;;;;;;5.40;3.77;;;13.00;66.90;;;;;;5032642;28;20427;-78
2022/08/08 02:59:57;;;;;;;4.40;3.87;;;13.00;69.30;;;;;;5034657;28;20489;-69
2022/08/08 03:03:00;;;;;;;4.43;4.03;;;13.00;66.10;;;;;;5014731;28;20415;-78
2022/08/08 03:05:31;;;;;;;4.10;3.80;;;12.90;63.60;;;;;;5018282;28;20911;-71
2022/08/08 03:08:34;;;;;;;4.77;4.00;;;12.90;84.90;;;;;;5032312;28;20437;-69
2022/08/08 03:11:27;;;;;;;4.73;4.27;;;12.90;79.40;;;;;;5032852;28;20396;-78
2022/08/08 03:14:16;;;;;;;4.57;4.17;;;12.80;79.30;;;;;;5034240;28;20391;-78
2022/08/08 03:16:58;;;;;;;4.83;4.43;;;12.80;72.80;;;;;;5032998;28;20418;-78
2022/08/08 03:19:54;;;;;;;4.40;3.97;;;12.80;73.50;;;;;;5033301;28;20365;-77
2022/08/08 03:22:20;;;;;;;8.33;4.50;;;12.80;74.80;;;;;;5033587;28;20495;-69
2022/08/08 03:24:45;;;;;;;4.20;3.90;;;12.70;78.90;;;;;;5033124;28;20378;-69
2022/08/08 03:27:18;;;;;;;4.60;4.20;;;12.70;81.80;;;;;;5031643;28;20505;-69
2022/08/08 03:29:51;;;;;;;6.37;4.77;;;12.70;91.20;;;;;;5032979;28;20210;-78
2022/08/08 03:35:04;;;;;;;5.80;5.17;;;12.70;93.00;;;;;;5034167;28;20740;-70
2022/08/08 03:37:33;;;;;;;5.20;4.70;;;12.70;93.10;;;;;;5032804;28;20508;-70
2022/08/08 03:40:04;;;;;;;7.20;5.60;;;12.70;93.00;;;;;;5032839;28;20389;-78
2022/08/08 03:42:31;;;;;;;4.93;4.43;;;12.70;93.10;;;;;;5031866;28;20509;-78
2022/08/08 03:44:57;;;;;;;4.33;3.93;;;12.70;93.00;;;;;;5032240;28;20426;-78
2022/08/08 03:47:24;;;;;;;9.00;4.87;;;12.70;93.00;;;;;;5031606;28;20413;-78
2022/08/08 03:49:50;;;;;;;7.40;5.27;;;12.70;99.90;;;;;;5033455;28;20467;-78
2022/08/08 03:52:16;;;;;;;5.73;4.90;;;12.70;99.90;;;;;;5033710;28;20394;-78
2022/08/08 03:54:43;;;;;;;5.70;3.87;;;12.80;99.90;;;;;;5033375;28;20483;-70
2022/08/08 03:57:11;;;;;;;4.80;4.40;;;12.70;99.90;;;;;;5032784;28;20632;-70
2022/08/08 03:59:36;;;;;;;6.50;4.90;;;12.70;99.90;;;;;;5033010;28;20418;-72
2022/08/08 04:02:02;;;;;;;5.30;4.00;;;12.70;94.20;;;;;;5032499;28;20393;-69
2022/08/08 04:04:35;;;;;;;4.33;4.03;;;12.70;94.10;;;;;;5031854;28;20641;-69
2022/08/08 04:07:01;;;;;;;4.03;3.73;;;12.60;93.10;;;;;;5031261;28;20176;-69
2022/08/08 04:09:27;;;;;;;6.07;4.00;;;12.50;96.30;;;;;;5033160;28;20774;-70
2022/08/08 04:11:53;;;;;;;4.70;3.90;;;12.50;99.90;;;;;;5032522;28;20180;-78
2022/08/08 04:14:18;;;;;;;4.43;4.03;;;12.50;99.90;;;;;;5033097;28;20762;-78
2022/08/08 04:16:44;;;;;;;5.27;3.73;;;12.50;99.90;;;;;;5032298;28;20206;-78
2022/08/08 04:19:10;;;;;;;4.50;4.10;;;12.50;99.90;;;;;;5031736;28;20199;-78
2022/08/08 04:21:35;;;;;;;6.60;4.20;;;12.50;99.90;;;;;;5032655;28;20179;-79
2022/08/08 04:24:01;;;;;;;5.50;4.37;;;12.40;99.90;;;;;;5032069;28;20217;-78
2022/08/08 04:26:27;;;;;;;5.40;4.90;;;12.50;99.90;;;;;;5031088;28;20175;-78
2022/08/08 04:28:53;;;;;;;7.33;4.17;;;12.50;99.90;;;;;;5033623;28;20309;-78
2022/08/08 04:31:18;;;;;;;7.67;4.40;;;12.50;99.90;;;;;;5036959;28;20414;-78
2022/08/08 04:33:44;;;;;;;5.27;4.37;;;12.50;99.90;;;;;;5036462;28;20628;-78
2022/08/08 04:36:10;;;;;;;7.63;6.17;;;12.50;99.90;;;;;;5034850;28;20640;-71
2022/08/08 04:38:35;;;;;;;5.13;4.70;;;12.50;99.90;;;;;;5036965;28;20544;-78
2022/08/08 04:41:01;;;;;;;5.57;4.97;;;12.60;99.90;;;;;;5036277;28;20187;-79
2022/08/08 04:43:27;;;;;;;5.80;4.73;;;12.60;99.90;;;;;;5036943;28;20313;-78
2022/08/08 04:45:53;;;;;;;4.50;4.10;;;12.60;99.90;;;;;;5037016;28;20766;-77
2022/08/08 04:48:19;;;;;;;6.17;4.17;;;12.70;99.90;;;;;;5034707;28;20787;-69
2022/08/08 04:50:44;;;;;;;7.13;4.57;;;12.70;99.90;;;;;;5037100;28;20174;-75
2022/08/08 04:53:10;;;;;;;8.33;3.97;;;12.60;99.90;;;;;;5036291;28;20255;-78
2022/08/08 04:55:35;;;;;;;4.50;4.10;;;12.70;99.90;;;;;;5036027;28;20178;-78
2022/08/08 04:58:01;;;;;;;8.13;5.10;;;12.60;99.90;;;;;;5034565;28;20187;-78
2022/08/08 05:00:27;;;;;;;4.90;4.50;;;12.50;99.30;;;;;;5037040;28;20182;-78
2022/08/08 05:02:53;;;;;;;3.53;3.23;;;12.50;99.90;;;;;;5036508;28;20194;-69
2022/08/08 05:05:18;;;;;;;4.07;3.77;;;12.60;99.90;;;;;;5036836;28;20180;-68
2022/08/08 05:07:45;;;;;;;4.80;4.40;;;12.60;99.90;;;;;;5035463;28;20195;-78
2022/08/08 05:10:11;;;;;;;5.93;3.67;;;12.70;99.90;;;;;;5036870;28;20191;-68
2022/08/08 05:12:37;;;;;;;4.30;3.90;;;12.80;99.90;;;;;;5034959;28;20429;-77
2022/08/08 05:15:03;;;;;;;3.53;3.23;;;12.80;99.90;;;;;;5036229;28;20254;-69
2022/08/08 05:17:28;;;;;;;6.00;4.10;;;12.90;99.90;;;;;;5035972;28;20266;-69
2022/08/08 05:19:54;;;;;;;5.13;4.63;;;12.90;99.90;;;;;;5036249;28;20505;-69
2022/08/08 05:22:20;;;;;;;4.60;3.70;;;13.00;99.90;;;;;;5036648;28;20250;-76
2022/08/08 05:24:46;;;;;;;5.50;4.90;;;13.10;99.90;;;;;;5035130;28;20172;-75
2022/08/08 05:27:11;;;;;;;5.30;4.73;;;13.20;99.90;;;;;;5033870;28;20270;-67
2022/08/08 05:29:37;;;;;;;4.40;4.00;;;13.40;99.90;;;;;;5034683;28;20199;-76
2022/08/08 05:32:04;;;;;;;7.87;3.80;;;13.50;99.90;;;;;;5036155;28;20478;-67
2022/08/08 05:34:41;;;;;;;8.13;5.13;;;13.60;99.90;;;;;;5035074;28;20637;-76
2022/08/08 05:37:07;;;;;;;6.93;4.53;;;13.60;99.90;;;;;;5034882;28;20418;-76
2022/08/08 05:39:33;;;;;;;6.47;4.60;;;13.80;99.90;;;;;;5035190;28;20513;-75
2022/08/08 05:42:00;;;;;;;6.43;4.30;;;13.80;99.90;;;;;;5035888;28;20516;-67
2022/08/08 05:44:28;;;;;;;6.13;4.40;;;13.90;99.90;;;;;;5035962;28;20421;-76
2022/08/08 05:46:55;;;;;;;7.27;5.50;;;13.90;99.90;;;;;;5034949;28;20450;-75
2022/08/08 05:49:21;;;;;;;5.13;4.63;;;14.00;99.90;;;;;;5035165;28;20492;-76
2022/08/08 05:51:48;;;;;;;5.17;4.67;;;14.10;99.90;;;;;;5036049;28;20398;-67
2022/08/08 05:54:15;;;;;;;7.23;5.43;;;14.20;99.90;;;;;;5034708;28;20442;-67
2022/08/08 05:56:43;;;;;;;5.70;5.20;;;14.40;99.90;;;;;;5035315;28;20460;-67
2022/08/08 05:59:21;;;;;;;10.33;5.20;;;14.50;99.90;;;;;;5034472;28;20922;-76
2022/08/08 06:01:57;;;;;;;6.30;5.30;;;14.70;99.90;;;;;;5035730;28;20430;-75
2022/08/08 06:04:26;;;;;;;6.73;5.47;;;14.90;99.90;;;;;;5035759;28;20419;-76
2022/08/08 06:06:59;;;;;;;7.30;6.60;;;15.00;99.90;;;;;;5034531;28;20402;-76
2022/08/08 06:09:31;;;;;;;6.60;5.57;;;15.20;99.90;;;;;;5034207;28;20814;-76
2022/08/08 06:12:01;;;;;;;7.87;5.90;;;15.20;99.90;;;;;;5035570;28;20403;-76
2022/08/08 06:14:28;;;;;;;8.23;4.70;;;15.30;99.90;;;;;;5035553;28;20402;-66
2022/08/08 06:17:02;;;;;;;6.20;4.70;;;15.40;99.90;;;;;;5034807;28;20425;-67
2022/08/08 06:19:27;;;;;;;6.20;4.83;;;15.50;99.90;;;;;;5034009;28;20413;-76
2022/08/08 06:21:54;;;;;;;6.03;4.47;;;15.60;99.90;;;;;;5035402;28;20873;-76
2022/08/08 06:24:21;;;;;;;5.90;4.90;;;15.70;99.90;;;;;;5035313;28;20414;-67
2022/08/08 06:26:57;;;;;;;6.70;5.20;;;15.80;99.90;;;;;;5034278;28;20414;-67
2022/08/08 06:29:31;;;;;;;7.00;4.53;;;15.90;99.90;;;;;;5035375;28;20446;-67
2022/08/08 06:32:00;;;;;;;5.23;4.73;;;16.00;99.90;;;;;;5034019;28;20771;-67
2022/08/08 06:34:35;;;;;;;4.93;4.40;;;16.10;99.90;;;;;;5035311;28;20485;-67
2022/08/08 06:37:02;;;;;;;6.77;4.40;;;16.20;99.90;;;;;;5034412;28;20402;-76
2022/08/08 06:39:29;;;;;;;3.40;3.10;;;16.30;99.90;;;;;;5035183;28;20394;-76
2022/08/08 06:42:00;;;;;;;4.53;2.80;;;16.40;99.90;;;;;;5034970;28;20918;-76
2022/08/08 06:44:27;;;;;;;3.00;2.70;;;16.50;99.90;;;;;;5034605;28;20406;-75
2022/08/08 06:46:55;;;;;;;2.83;2.47;;;16.60;99.90;;;;;;5034276;28;20433;-76
2022/08/08 06:49:20;;;;;;;3.10;2.90;;;16.70;99.90;;;;;;5034803;28;20449;-67
2022/08/08 06:51:46;;;;;;;9.77;3.00;;;16.80;96.10;;;;;;5034308;28;20872;-67
2022/08/08 06:54:12;;;;;;;2.70;2.50;;;16.90;99.90;;;;;;5034762;28;20165;-67
2022/08/08 06:56:38;;;;;;;2.07;1.97;;;16.90;94.50;;;;;;5034233;28;20164;-75
2022/08/08 06:59:05;;;;;;;4.70;2.93;;;17.00;89.30;;;;;;5034598;28;20446;-67
2022/08/08 07:01:37;;;;;;;2.70;2.50;;;17.00;85.50;;;;;;5034723;28;20465;-76
2022/08/08 07:04:19;;;;;;;4.43;2.57;;;17.10;67.70;;;;;;5034083;28;20398;-76
2022/08/08 07:06:53;;;;;;;4.77;2.90;;;17.30;36.70;;;;;;5033882;28;20887;-74
2022/08/08 07:09:20;;;;;;;4.50;2.03;;;17.40;56.60;;;;;;5034334;28;20456;-68
2022/08/08 07:11:50;;;;;;;1.80;1.70;;;17.40;30.40;;;;;;5034296;28;20426;-68
2022/08/08 07:14:20;;;;;;;5.37;2.20;;;17.60;1.00;;;;;;5034273;28;20405;-67
2022/08/08 07:16:49;;;;;;;3.00;2.13;;;17.70;20.40;;;;;;5033821;28;20390;-67
2022/08/08 07:19:36;;;;;;;5.83;2.33;;;17.70;10.10;;;;;;5034203;28;20449;-67
2022/08/08 07:22:05;;;;;;;3.13;2.00;;;17.80;1.00;;;;;;5034024;28;20394;-68
2022/08/08 07:24:42;;;;;;;4.17;2.10;;;17.90;1.00;;;;;;5033832;28;20394;-77
2022/08/08 07:27:11;;;;;;;2.47;2.27;;;18.00;1.00;;;;;;5033378;28;20433;-67
2022/08/08 07:29:38;;;;;;;2.70;2.00;;;18.10;1.00;;;;;;5034014;28;20454;-68
2022/08/08 07:32:08;;;;;;;2.57;1.87;;;18.20;1.00;;;;;;5033968;28;20452;-68
2022/08/08 07:34:35;;;;;;;2.50;2.30;;;18.30;1.00;;;;;;5034229;28;20375;-76
2022/08/08 07:37:02;;;;;;;6.93;2.50;;;18.40;1.00;;;;;;5033555;28;20430;-76
2022/08/08 07:39:30;;;;;;;2.53;2.10;;;18.30;1.00;;;;;;5033984;28;20402;-67
2022/08/08 07:41:58;;;;;;;2.63;1.53;;;18.30;1.00;;;;;;5033937;28;20390;-75
2022/08/08 07:44:24;;;;;;;1.80;1.70;;;18.30;1.00;;;;;;5033492;28;20882;-75
2022/08/08 07:46:50;;;;;;;6.10;2.83;;;18.30;1.00;;;;;;5033049;28;20508;-68
2022/08/08 07:49:16;;;;;;;3.70;2.23;;;18.40;1.00;;;;;;5033644;28;20453;-68
2022/08/08 07:51:42;;;;;;;5.17;2.33;;;18.60;1.00;;;;;;5033902;28;20926;-68
2022/08/08 07:54:49;;;;;;;2.50;2.13;;;18.80;1.00;;;;;;5033726;28;20168;-75
2022/08/08 07:57:21;;;;;;;2.43;2.00;;;18.90;1.00;;;;;;5031948;28;20504;-77
2022/08/08 08:00:17;;;;;;;8.53;2.23;;;19.20;1.00;;;;;;5033607;28;20394;-74
2022/08/08 08:02:54;;;;;;;4.00;2.37;;;19.40;1.00;;;;;;5032385;28;20772;-68
2022/08/08 08:05:28;;;;;;;4.07;2.00;;;19.40;1.00;;;;;;5033672;28;20410;-76
2022/08/08 08:08:02;;;;;;;4.10;1.87;;;19.40;1.00;;;;;;5032828;28;20422;-68
2022/08/08 08:10:29;;;;;;;1.60;1.50;;;19.30;1.00;;;;;;5033343;28;20541;-68
2022/08/08 08:13:19;;;;;;;3.67;1.93;;;19.00;1.00;;;;;;5033747;28;20434;-76
2022/08/08 08:16:07;;;;;;;3.17;1.70;;;18.90;1.00;;;;;;5033396;28;20402;-75
2022/08/08 08:18:43;;;;;;;4.70;2.83;;;18.90;1.00;;;;;;5033194;28;20418;-68
2022/08/08 08:21:09;;;;;;;4.20;2.00;;;18.90;1.00;;;;;;5032949;28;20405;-77
2022/08/08 08:23:36;;;;;;;8.13;2.63;;;18.80;1.00;;;;;;5033373;28;20398;-68
2022/08/08 08:26:02;;;;;;;2.37;2.07;;;18.80;1.00;;;;;;5032692;28;20159;-69
2022/08/08 08:28:28;;;;;;;3.70;1.67;;;18.90;1.00;;;;;;5032978;28;20444;-69
2022/08/08 08:30:55;;;;;;;7.17;1.87;;;18.90;1.00;;;;;;5033294;28;20464;-68
2022/08/08 08:33:21;;;;;;;2.03;1.87;;;18.90;1.00;;;;;;5033375;28;20246;-68
2022/08/08 08:35:48;;;;;;;9.23;3.23;;;18.90;1.00;;;;;;5032980;28;20395;-69
2022/08/08 08:38:13;;;;;;;2.90;1.97;;;18.90;1.00;;;;;;5032675;28;20423;-68
2022/08/08 08:40:39;;;;;;;3.23;2.17;;;18.90;1.00;;;;;;5033246;28;20402;-69
2022/08/08 08:43:07;;;;;;;4.50;2.10;;;18.80;1.00;;;;;;5033307;28;20168;-68
2022/08/08 08:45:35;;;;;;;4.00;2.00;;;18.90;1.00;;;;;;5033159;28;20778;-68
2022/08/08 08:48:01;;;;;;;4.13;2.00;;;18.90;1.00;;;;;;5032553;28;20418;-76
2022/08/08 08:50:27;;;;;;;2.60;2.37;;;19.00;1.00;;;;;;5031873;28;20859;-76
2022/08/08 08:52:56;;;;;;;2.80;1.90;;;19.00;1.00;;;;;;5032645;28;20238;-75
2022/08/08 08:55:24;;;;;;;3.00;2.00;;;19.10;1.00;;;;;;5033022;28;20409;-74
2022/08/08 08:57:52;;;;;;;2.90;2.50;;;19.10;1.00;;;;;;5032321;28;20476;-75
2022/08/08 09:00:18;;;;;;;5.03;2.43;;;19.20;1.00;;;;;;5032042;28;20411;-68
2022/08/08 09:02:46;;;;;;;3.00;2.10;;;19.20;1.00;;;;;;5032998;28;20450;-68
2022/08/08 09:05:13;;;;;;;7.60;2.40;;;19.30;1.00;;;;;;5032972;28;20182;-75
2022/08/08 09:07:40;;;;;;;5.13;2.10;;;19.40;1.00;;;;;;5032234;28;20426;-68
2022/08/08 09:10:07;;;;;;;3.83;2.13;;;19.50;1.00;;;;;;5032913;28;20935;-68
2022/08/08 09:12:34;;;;;;;2.03;1.83;;;19.60;1.00;;;;;;5032547;28;20744;-67
2022/08/08 09:15:00;;;;;;;3.83;1.80;;;19.70;1.00;;;;;;5034659;28;20430;-68
2022/08/08 09:17:26;;;;;;;3.83;1.90;;;19.80;1.00;;;;;;5035874;28;20426;-75
2022/08/08 09:19:55;;;;;;;2.90;1.70;;;19.90;1.00;;;;;;5036567;28;20411;-67
2022/08/08 09:22:22;;;;;;;3.53;1.77;;;20.00;1.00;;;;;;5036549;28;20414;-67
2022/08/08 09:24:52;;;;;;;2.77;1.63;;;20.00;1.00;;;;;;5035105;28;20477;-69
2022/08/08 09:27:19;;;;;;;2.40;2.10;;;20.00;1.00;;;;;;5035645;28;20440;-75
2022/08/08 09:30:08;;;;;;;6.13;2.13;;;20.00;1.00;;;;;;5035950;28;20537;-68
2022/08/08 09:32:37;;;;;;;2.30;1.63;;;20.00;1.00;;;;;;5036351;28;20395;-75
2022/08/08 09:35:11;;;;;;;3.07;1.80;;;20.10;1.00;;;;;;5036138;28;20401;-75
2022/08/08 09:37:48;;;;;;;2.60;2.20;;;20.10;1.00;;;;;;5035553;28;20421;-68
2022/08/08 09:40:19;;;;;;;4.83;1.77;;;20.20;1.00;;;;;;5036308;28;20405;-68
2022/08/08 09:42:47;;;;;;;5.90;2.60;;;20.20;1.00;;;;;;5036451;28;20732;-67
2022/08/08 09:45:32;;;;;;;5.80;2.67;;;20.20;1.00;;;;;;5036075;28;20398;-77
2022/08/08 09:48:08;;;;;;;3.63;1.70;;;20.20;1.00;;;;;;5035046;28;20891;-74
2022/08/08 09:50:35;;;;;;;1.40;1.30;;;20.20;1.00;;;;;;5036099;28;20453;-67
2022/08/08 09:53:03;;;;;;;2.77;1.63;;;20.20;1.00;;;;;;5036102;28;20401;-67
2022/08/08 09:55:29;;;;;;;5.07;1.90;;;20.30;1.00;;;;;;5036138;28;20411;-75
2022/08/08 09:58:18;;;;;;;1.90;1.70;;;20.40;1.00;;;;;;5035152;28;20424;-77
2022/08/08 10:00:46;;;;;;;1.77;1.63;;;20.40;1.00;;;;;;5034942;28;20180;-67
2022/08/08 10:03:17;;;;;;;3.40;1.93;;;20.50;1.00;;;;;;5035617;28;20412;-68
2022/08/08 10:05:44;;;;;;;4.77;1.63;;;20.60;1.00;;;;;;5034408;28;20417;-75
2022/08/08 10:08:10;;;;;;;2.10;2.00;;;20.60;1.00;;;;;;5035114;28;20470;-67
2022/08/08 10:10:41;;;;;;;2.30;1.77;;;20.60;1.00;;;;;;5035554;28;20449;-67
2022/08/08 10:13:24;;;;;;;3.70;2.83;;;20.60;1.00;;;;;;5035591;28;20391;-76
2022/08/08 10:15:55;;;;;;;2.93;1.90;;;20.70;1.00;;;;;;5035528;28;20403;-69
2022/08/08 10:18:30;;;;;;;2.20;1.97;;;20.90;1.00;;;;;;5034998;28;20925;-68
2022/08/08 10:21:04;;;;;;;3.03;1.57;;;21.00;1.00;;;;;;5035108;28;20404;-70
2022/08/08 10:23:39;;;;;;;4.80;1.83;;;21.20;1.00;;;;;;5035277;28;20395;-76
2022/08/08 10:26:05;;;;;;;2.60;1.70;;;21.40;1.00;;;;;;5033953;28;20410;-76
2022/08/08 10:28:32;;;;;;;7.83;2.10;;;21.50;1.00;;;;;;5035069;28;20426;-69
2022/08/08 10:32:30;;;;;;;2.20;1.70;;;21.60;1.00;;;;;;5035349;28;20399;-69
2022/08/08 10:33:48;;;;;;;2.90;1.80;;;21.70;1.00;;;;;;5035011;28;20464;-76
2022/08/08 10:36:15;;;;;;;3.23;1.57;;;21.80;99.90;;;;;;5034720;28;20394;-69
2022/08/08 10:38:41;;;;;;;3.60;1.40;;;21.70;99.90;;;;;;5034824;28;20824;-69
2022/08/08 10:41:16;;;;;;;5.43;1.30;;;21.70;99.90;;;;;;5035172;28;20485;-69
2022/08/08 10:43:42;;;;;;;1.80;1.40;;;21.80;1.00;;;;;;5033819;28;20817;-69
2022/08/08 10:46:24;;;;;;;4.60;1.43;;;21.90;99.90;;;;;;5034271;28;20844;-73
2022/08/08 10:48:54;;;;;;;1.43;1.03;;;21.90;99.90;;;;;;5034769;28;20445;-73
2022/08/08 10:51:28;;;;;;;1.83;1.50;;;21.90;99.90;;;;;;5034986;28;20426;-73
2022/08/08 10:53:54;;;;;;;8.17;1.47;;;21.80;99.90;;;;;;5034765;28;20445;-71
2022/08/08 10:56:23;;;;;;;4.17;1.20;;;21.80;99.90;;;;;;5033743;28;20394;-70
2022/08/08 10:58:59;;;;;;;2.30;1.43;;;21.90;99.90;;;;;;5033526;28;20467;-75
2022/08/08 11:01:29;;;;;;;4.20;1.40;;;22.10;99.90;;;;;;5034785;28;20394;-70
2022/08/08 11:03:59;;;;;;;2.70;1.10;;;22.20;99.90;;;;;;5034592;28;20406;-69
2022/08/08 11:06:33;;;;;;;2.07;1.77;;;22.40;99.90;;;;;;5034048;28;20407;-70
2022/08/08 11:09:02;;;;;;;4.30;1.63;;;22.40;99.90;;;;;;5034359;28;20496;-76
2022/08/08 11:11:39;;;;;;;1.70;1.20;;;22.40;99.90;;;;;;5034147;28;20755;-72
2022/08/08 11:14:06;;;;;;;1.50;1.10;;;22.30;99.90;;;;;;5034390;28;20469;-70
2022/08/08 11:16:34;;;;;;;1.93;1.40;;;22.30;99.90;;;;;;5033735;28;20397;-70
2022/08/08 11:19:01;;;;;;;1.53;1.30;;;22.20;99.90;;;;;;5034302;28;20418;-70
2022/08/08 11:21:33;;;;;;;2.30;1.10;;;22.10;99.90;;;;;;5034359;28;20405;-75
2022/08/08 11:24:04;;;;;;;2.20;1.43;;;22.10;99.90;;;;;;5034200;28;20404;-75
2022/08/08 11:26:32;;;;;;;2.30;1.23;;;22.20;99.90;;;;;;5033853;28;20953;-70
2022/08/08 11:29:03;;;;;;;2.10;1.20;;;22.10;99.90;;;;;;5034085;28;20500;-70
2022/08/08 11:31:38;;;;;;;3.63;2.17;;;22.10;99.90;;;;;;5033717;28;20398;-75
2022/08/08 11:34:05;;;;;;;3.10;1.50;;;22.20;99.90;;;;;;5033949;28;20935;-71
2022/08/08 11:36:36;;;;;;;6.50;1.20;;;22.30;99.90;;;;;;5033542;28;20457;-75
2022/08/08 11:39:04;;;;;;;3.83;1.00;;;22.40;99.90;;;;;;5033888;28;20461;-70
2022/08/08 11:41:30;;;;;;;2.17;0.90;;;22.50;99.90;;;;;;5034007;28;20883;-70
2022/08/08 11:43:56;;;;;;;5.33;1.57;;;22.70;99.90;;;;;;5033978;28;20398;-75
2022/08/08 11:46:27;;;;;;;4.07;1.50;;;22.90;99.90;;;;;;5033778;28;20233;-70
2022/08/08 11:48:53;;;;;;;2.23;1.40;;;22.90;99.90;;;;;;5033317;28;20450;-70
2022/08/08 11:51:22;;;;;;;3.30;1.47;;;22.90;99.90;;;;;;5033987;28;20759;-70
2022/08/08 11:53:50;;;;;;;1.50;1.10;;;22.80;99.90;;;;;;5033898;28;20418;-70
2022/08/08 11:56:23;;;;;;;1.43;1.33;;;22.60;99.90;;;;;;5033089;28;20426;-71
2022/08/08 11:58:50;;;;;;;1.83;1.20;;;22.50;99.90;;;;;;5033701;28;20464;-75
2022/08/08 12:01:16;;;;;;;5.73;1.47;;;22.60;99.90;;;;;;5032497;28;20485;-69
2022/08/08 12:03:46;;;;;;;1.50;1.20;;;22.60;99.90;;;;;;5033264;28;20410;-70
2022/08/08 12:06:17;;;;;;;3.53;1.40;;;22.60;99.90;;;;;;5032839;28;20826;-70
2022/08/08 12:08:43;;;;;;;4.10;1.20;;;22.70;99.90;;;;;;5033458;28;20472;-70
2022/08/08 12:11:17;;;;;;;1.77;1.40;;;22.70;99.90;;;;;;5033608;28;20402;-70
2022/08/08 12:13:47;;;;;;;3.67;1.27;;;22.80;99.90;;;;;;5033466;28;20779;-71
2022/08/08 12:16:18;;;;;;;2.50;1.10;;;22.70;99.90;;;;;;5032772;28;20402;-71
2022/08/08 12:18:53;;;;;;;3.83;1.60;;;22.70;99.90;;;;;;5033368;28;20422;-75
2022/08/08 12:21:27;;;;;;;1.50;1.40;;;22.60;99.90;;;;;;5032220;28;20764;-75
2022/08/08 12:24:14;;;;;;;1.43;1.33;;;22.40;99.90;;;;;;5032867;28;20397;-71
2022/08/08 12:26:58;;;;;;;1.57;1.47;;;22.40;99.90;;;;;;5032869;28;20410;-70
2022/08/08 12:29:33;;;;;;;1.30;1.20;;;22.40;99.90;;;;;;5033466;28;20454;-70
2022/08/08 12:32:02;;;;;;;3.83;2.17;;;22.40;99.90;;;;;;5033145;28;20468;-75
2022/08/08 12:34:42;;;;;;;3.60;1.50;;;22.30;99.90;;;;;;5032937;28;20406;-75
2022/08/08 12:37:16;;;;;;;3.83;1.87;;;22.30;99.90;;;;;;5031255;28;20417;-70
2022/08/08 12:39:42;;;;;;;1.50;1.40;;;22.20;99.90;;;;;;5033384;28;20737;-70
2022/08/08 12:42:08;;;;;;;2.90;1.53;;;22.20;99.90;;;;;;5031872;28;20417;-67
2022/08/08 12:44:35;;;;;;;1.50;1.40;;;22.30;99.90;;;;;;5032696;28;20171;-76
2022/08/08 12:47:03;;;;;;;1.80;1.30;;;22.30;99.90;;;;;;5032358;28;20218;-77
2022/08/08 12:49:31;;;;;;;4.60;1.50;;;22.40;99.90;;;;;;5034298;28;20484;-76
2022/08/08 12:51:58;;;;;;;2.60;1.67;;;22.40;99.90;;;;;;5036145;28;20417;-76
2022/08/08 12:54:45;;;;;;;2.40;1.10;;;22.40;99.90;;;;;;5037192;28;20394;-76
2022/08/08 12:57:23;;;;;;;3.40;1.63;;;22.50;99.90;;;;;;5036006;28;20907;-70
2022/08/08 12:59:50;;;;;;;1.63;1.53;;;22.60;99.90;;;;;;5035249;28;20417;-70
2022/08/08 13:02:36;;;;;;;1.60;1.50;;;22.70;99.90;;;;;;5036971;28;20871;-76
2022/08/08 13:05:17;;;;;;;1.60;1.30;;;23.00;99.90;;;;;;5036978;28;20406;-70
2022/08/08 13:07:42;;;;;;;1.33;1.23;;;23.40;99.90;;;;;;5034990;28;20434;-70
2022/08/08 13:10:10;;;;;;;1.40;1.20;;;23.80;99.90;;;;;;5036789;28;20446;-76
2022/08/08 13:12:47;;;;;;;1.27;1.17;;;24.10;99.90;;;;;;5035485;28;20171;-76
2022/08/08 13:15:19;;;;;;;1.60;1.20;;;24.50;99.90;;;;;;5037004;28;20432;-69
2022/08/08 13:17:44;;;;;;;4.13;1.30;;;24.80;99.90;;;;;;5035649;28;20419;-70
2022/08/08 13:20:18;;;;;;;1.50;1.37;;;24.70;99.90;;;;;;5035581;28;20929;-70
2022/08/08 13:22:45;;;;;;;2.60;1.03;;;24.50;99.90;;;;;;5035286;28;20172;-76
2022/08/08 13:25:19;;;;;;;1.97;1.33;;;24.10;99.90;;;;;;5036459;28;20403;-76
2022/08/08 13:27:54;;;;;;;2.40;1.40;;;24.00;99.90;;;;;;5035784;28;20782;-70